createdAt,value
2023-05-22T00:00:50.578Z,8.60
2023-05-22T00:01:50.551Z,7.60
2023-05-22T00:02:50.594Z,11.20
2023-05-22T00:03:50.519Z,8.50
2023-05-22T00:04:50.591Z,9.60
2023-05-22T00:05:50.533Z,8.30
2023-05-22T00:06:50.485Z,11.30
2023-05-22T00:07:50.481Z,11.40
2023-05-22T00:08:50.462Z,13.60
2023-05-22T00:09:50.460Z,12.50
2023-05-22T00:10:50.435Z,10.00
2023-05-22T00:11:50.452Z,14.00
2023-05-22T00:12:50.427Z,15.30
2023-05-22T00:13:50.419Z,14.60
2023-05-22T00:14:50.399Z,13.50
2023-05-22T00:15:50.397Z,15.60
2023-05-22T00:16:50.473Z,13.00
2023-05-22T00:17:50.416Z,14.10
2023-05-22T00:18:50.417Z,12.30
2023-05-22T00:19:50.365Z,11.00
2023-05-22T00:20:50.335Z,13.10
2023-05-22T00:21:50.315Z,10.30
2023-05-22T00:22:50.338Z,9.70
2023-05-22T00:23:50.301Z,10.90
2023-05-22T00:24:50.282Z,9.60
2023-05-22T00:25:50.271Z,8.70
2023-05-22T00:26:50.262Z,11.10
2023-05-22T00:27:50.272Z,8.20
2023-05-22T00:28:50.237Z,11.60
2023-05-22T00:29:50.226Z,13.90
2023-05-22T00:30:50.225Z,7.80
2023-05-22T00:31:50.208Z,8.60
2023-05-22T00:32:50.251Z,9.10
2023-05-22T00:33:50.295Z,10.60
2023-05-22T00:34:50.190Z,10.70
2023-05-22T00:35:50.165Z,7.40
2023-05-22T00:36:50.150Z,7.80
2023-05-22T00:37:50.146Z,8.70
2023-05-22T00:38:50.153Z,9.10
2023-05-22T00:39:50.152Z,11.60
2023-05-22T00:40:50.117Z,8.20
2023-05-22T00:41:50.099Z,10.40
2023-05-22T00:42:50.090Z,8.70
2023-05-22T00:43:50.104Z,8.00
2023-05-22T00:44:50.073Z,6.90
2023-05-22T00:45:50.083Z,9.80
2023-05-22T00:46:50.082Z,11.10
2023-05-22T00:47:50.081Z,7.40
2023-05-22T00:48:50.047Z,9.00
2023-05-22T00:49:50.035Z,9.90
2023-05-22T00:50:49.999Z,7.60
2023-05-22T00:51:49.994Z,8.20
2023-05-22T00:52:49.976Z,7.40
2023-05-22T00:53:49.989Z,7.50
2023-05-22T00:54:49.956Z,6.70
2023-05-22T00:55:49.945Z,8.00
2023-05-22T00:56:49.926Z,10.50
2023-05-22T00:57:49.944Z,9.70
2023-05-22T00:58:49.908Z,7.60
2023-05-22T00:59:49.939Z,8.50
2023-05-22T01:00:49.877Z,7.00
2023-05-22T01:01:49.946Z,8.70
2023-05-22T01:02:49.929Z,7.80
2023-05-22T01:03:49.942Z,6.90
2023-05-22T01:04:49.856Z,8.00
2023-05-22T01:05:49.854Z,8.70
2023-05-22T01:06:49.822Z,6.50
2023-05-22T01:07:49.814Z,7.70
2023-05-22T01:08:49.792Z,7.70
2023-05-22T01:09:49.800Z,5.80
2023-05-22T01:10:49.780Z,7.80
2023-05-22T01:11:49.787Z,7.90
2023-05-22T01:12:49.748Z,7.50
2023-05-22T01:13:49.739Z,6.80
2023-05-22T01:14:49.735Z,8.00
2023-05-22T01:15:49.800Z,7.50
2023-05-22T01:16:49.763Z,8.70
2023-05-22T01:17:49.763Z,8.80
2023-05-22T01:18:49.715Z,7.00
2023-05-22T01:19:49.682Z,8.30
2023-05-22T01:20:49.687Z,7.60
2023-05-22T01:21:49.658Z,7.80
2023-05-22T01:22:49.641Z,8.40
2023-05-22T01:23:49.677Z,14.50
2023-05-22T01:24:49.623Z,8.80
2023-05-22T01:25:49.604Z,8.30
2023-05-22T01:26:49.595Z,7.60
2023-05-22T01:27:49.596Z,8.80
2023-05-22T01:28:49.601Z,8.90
2023-05-22T01:29:49.558Z,7.00
2023-05-22T01:30:49.552Z,8.20
2023-05-22T01:31:49.539Z,10.10
2023-05-22T01:32:49.593Z,9.00
2023-05-22T01:33:49.633Z,7.30
2023-05-22T01:34:49.600Z,8.90
2023-05-22T01:35:49.504Z,8.50
2023-05-22T01:36:49.491Z,8.30
2023-05-22T01:37:49.478Z,6.40
2023-05-22T01:38:49.456Z,7.80
2023-05-22T01:39:49.464Z,9.80
2023-05-22T01:40:49.480Z,9.90
2023-05-22T01:41:49.447Z,12.10
2023-05-22T01:42:49.410Z,8.30
2023-05-22T01:43:49.405Z,8.40
2023-05-22T01:44:49.388Z,9.70
2023-05-22T01:45:49.448Z,10.60
2023-05-22T01:46:49.403Z,9.10
2023-05-22T01:47:49.416Z,7.20
2023-05-22T01:48:49.382Z,7.30
2023-05-22T01:49:49.353Z,8.20
2023-05-22T01:50:49.352Z,9.10
2023-05-22T01:51:49.348Z,7.60
2023-05-22T01:52:49.302Z,8.20
2023-05-22T01:53:49.299Z,8.90
2023-05-22T01:54:49.278Z,9.80
2023-05-22T01:55:49.271Z,12.10
2023-05-22T01:56:49.298Z,6.80
2023-05-22T01:57:49.279Z,11.00
2023-05-22T01:58:49.260Z,7.40
2023-05-22T01:59:49.241Z,8.20
2023-05-22T02:00:49.371Z,9.00
2023-05-22T02:01:49.357Z,8.00
2023-05-22T02:02:49.244Z,10.00
2023-05-22T02:03:49.225Z,6.60
2023-05-22T02:04:49.167Z,12.40
2023-05-22T02:05:49.184Z,8.30
2023-05-22T02:06:49.160Z,11.00
2023-05-22T02:07:49.187Z,9.90
2023-05-22T02:08:49.125Z,10.50
2023-05-22T02:09:49.119Z,10.80
2023-05-22T02:10:49.115Z,13.30
2023-05-22T02:11:49.130Z,10.00
2023-05-22T02:12:49.093Z,8.30
2023-05-22T02:13:49.105Z,10.20
2023-05-22T02:14:49.068Z,8.80
2023-05-22T02:15:49.175Z,8.50
2023-05-22T02:16:49.051Z,7.70
2023-05-22T02:17:49.068Z,12.90
2023-05-22T02:18:49.076Z,10.60
2023-05-22T02:19:49.034Z,8.60
2023-05-22T02:20:48.999Z,8.20
2023-05-22T02:21:48.988Z,8.60
2023-05-22T02:22:49.000Z,8.60
2023-05-22T02:23:48.963Z,7.80
2023-05-22T02:24:48.972Z,12.70
2023-05-22T02:25:48.959Z,10.20
2023-05-22T02:26:48.927Z,11.00
2023-05-22T02:27:48.923Z,7.30
2023-05-22T02:28:48.927Z,9.60
2023-05-22T02:29:48.924Z,9.60
2023-05-22T02:30:48.893Z,8.80
2023-05-22T02:31:48.995Z,8.80
2023-05-22T02:32:48.890Z,10.70
2023-05-22T02:33:48.908Z,7.10
2023-05-22T02:34:48.831Z,9.70
2023-05-22T02:35:48.826Z,8.10
2023-05-22T02:36:48.825Z,8.80
2023-05-22T02:37:48.824Z,7.70
2023-05-22T02:38:48.870Z,9.70
2023-05-22T02:39:48.804Z,8.70
2023-05-22T02:40:48.795Z,8.30
2023-05-22T02:41:48.778Z,11.00
2023-05-22T02:42:48.755Z,8.80
2023-05-22T02:43:48.757Z,9.80
2023-05-22T02:44:48.769Z,14.70
2023-05-22T02:45:48.725Z,10.20
2023-05-22T02:46:48.812Z,12.30
2023-05-22T02:47:48.718Z,14.10
2023-05-22T02:48:48.710Z,14.10
2023-05-22T02:49:48.712Z,9.60
2023-05-22T02:50:48.670Z,10.30
2023-05-22T02:51:48.667Z,9.70
2023-05-22T02:52:48.640Z,8.30
2023-05-22T02:53:48.633Z,9.70
2023-05-22T02:54:48.635Z,8.40
2023-05-22T02:55:48.639Z,9.20
2023-05-22T02:56:48.593Z,8.60
2023-05-22T02:57:48.582Z,8.90
2023-05-22T02:58:48.579Z,8.80
2023-05-22T02:59:48.562Z,8.10
2023-05-22T03:00:48.549Z,7.30
2023-05-22T03:01:48.624Z,12.50
2023-05-22T03:02:48.609Z,8.90
2023-05-22T03:03:48.696Z,9.10
2023-05-22T03:04:48.504Z,9.70
2023-05-22T03:05:48.492Z,10.30
2023-05-22T03:06:48.488Z,8.90
2023-05-22T03:07:48.914Z,10.20
2023-05-22T03:08:48.452Z,8.10
2023-05-22T03:09:48.454Z,8.30
2023-05-22T03:10:48.445Z,7.80
2023-05-22T03:11:48.424Z,11.40
2023-05-22T03:12:48.456Z,9.30
2023-05-22T03:13:48.397Z,9.70
2023-05-22T03:14:48.393Z,9.40
2023-05-22T03:15:48.381Z,11.30
2023-05-22T03:16:48.459Z,10.30
2023-05-22T03:17:48.435Z,10.50
2023-05-22T03:18:48.364Z,10.60
2023-05-22T03:19:48.331Z,9.20
2023-05-22T03:20:48.335Z,11.70
2023-05-22T03:21:48.322Z,9.20
2023-05-22T03:22:48.337Z,8.10
2023-05-22T03:23:48.312Z,7.60
2023-05-22T03:24:48.289Z,10.00
2023-05-22T03:25:48.279Z,8.50
2023-05-22T03:26:48.255Z,9.00
2023-05-22T03:27:48.272Z,9.90
2023-05-22T03:28:48.265Z,10.70
2023-05-22T03:29:48.260Z,12.80
2023-05-22T03:30:48.213Z,10.20
2023-05-22T03:31:48.202Z,10.10
2023-05-22T03:32:48.264Z,8.20
2023-05-22T03:33:48.223Z,9.40
2023-05-22T03:34:48.174Z,12.70
2023-05-22T03:35:48.162Z,7.30
2023-05-22T03:36:48.174Z,10.20
2023-05-22T03:37:48.156Z,12.50
2023-05-22T03:38:48.150Z,9.90
2023-05-22T03:39:48.145Z,8.80
2023-05-22T03:40:48.107Z,10.20
2023-05-22T03:41:48.088Z,8.00
2023-05-22T03:42:48.087Z,9.20
2023-05-22T03:43:48.095Z,9.00
2023-05-22T03:44:48.093Z,12.30
2023-05-22T03:45:48.118Z,10.10
2023-05-22T03:46:48.050Z,8.20
2023-05-22T03:47:48.065Z,8.20
2023-05-22T03:48:48.012Z,9.00
2023-05-22T03:49:48.029Z,8.00
2023-05-22T03:50:47.987Z,8.70
2023-05-22T03:51:47.979Z,9.70
2023-05-22T03:52:47.970Z,7.10
2023-05-22T03:53:47.993Z,7.50
2023-05-22T03:54:47.952Z,7.50
2023-05-22T03:55:47.927Z,10.70
2023-05-22T03:56:47.980Z,12.30
2023-05-22T03:57:47.913Z,9.70
2023-05-22T03:58:47.922Z,7.80
2023-05-22T03:59:47.889Z,9.40
2023-05-22T04:00:47.884Z,5.90
2023-05-22T04:01:47.935Z,9.50
2023-05-22T04:02:48.067Z,9.20
2023-05-22T04:03:47.989Z,10.40
2023-05-22T04:04:48.071Z,8.90
2023-05-22T04:05:48.030Z,8.10
2023-05-22T04:06:47.975Z,8.80
2023-05-22T04:07:48.010Z,8.90
2023-05-22T04:08:47.813Z,11.40
2023-05-22T04:09:47.778Z,8.40
2023-05-22T04:10:47.780Z,8.50
2023-05-22T04:11:47.759Z,8.50
2023-05-22T04:12:47.741Z,6.80
2023-05-22T04:13:47.753Z,13.00
2023-05-22T04:14:47.735Z,10.90
2023-05-22T04:15:47.746Z,7.90
2023-05-22T04:16:50.269Z,7.90
2023-05-22T04:17:47.801Z,11.40
2023-05-22T04:18:47.701Z,9.30
2023-05-22T04:19:47.705Z,7.20
2023-05-22T04:20:47.689Z,10.40
2023-05-22T04:21:47.671Z,10.50
2023-05-22T04:22:47.642Z,10.10
2023-05-22T04:23:47.653Z,9.80
2023-05-22T04:24:47.861Z,10.70
2023-05-22T04:25:47.601Z,11.50
2023-05-22T04:26:47.596Z,12.50
2023-05-22T04:27:47.570Z,8.90
2023-05-22T04:28:47.568Z,9.00
2023-05-22T04:29:47.598Z,10.60
2023-05-22T04:30:47.561Z,8.40
2023-05-22T04:31:47.533Z,13.90
2023-05-22T04:32:47.553Z,11.60
2023-05-22T04:33:47.516Z,7.30
2023-05-22T04:34:47.527Z,8.30
2023-05-22T04:35:47.490Z,11.90
2023-05-22T04:36:47.480Z,12.70
2023-05-22T04:37:47.486Z,9.30
2023-05-22T04:38:47.483Z,12.50
2023-05-22T04:39:47.499Z,8.70
2023-05-22T04:40:47.442Z,9.50
2023-05-22T04:41:47.421Z,6.70
2023-05-22T04:42:47.418Z,8.10
2023-05-22T04:43:47.399Z,10.80
2023-05-22T04:44:47.421Z,8.40
2023-05-22T04:45:47.383Z,9.30
2023-05-22T04:46:47.400Z,7.80
2023-05-22T04:47:47.406Z,9.80
2023-05-22T04:48:47.353Z,9.70
2023-05-22T04:49:47.359Z,10.80
2023-05-22T04:50:47.347Z,8.40
2023-05-22T04:51:47.311Z,8.60
2023-05-22T04:52:54.241Z,9.80
2023-05-22T04:53:47.287Z,7.00
2023-05-22T04:54:47.277Z,7.60
2023-05-22T04:55:47.290Z,7.10
2023-05-22T04:56:47.253Z,10.00
2023-05-22T04:57:47.514Z,10.40
2023-05-22T04:58:47.228Z,8.40
2023-05-22T04:59:47.213Z,8.60
2023-05-22T05:00:47.260Z,8.10
2023-05-22T05:01:47.229Z,9.50
2023-05-22T05:02:47.320Z,9.10
2023-05-22T05:03:47.206Z,11.80
2023-05-22T05:04:47.161Z,9.00
2023-05-22T05:05:47.146Z,12.40
2023-05-22T05:06:47.161Z,10.00
2023-05-22T05:07:49.131Z,10.20
2023-05-22T05:08:47.117Z,8.10
2023-05-22T05:09:47.103Z,10.50
2023-05-22T05:10:47.097Z,7.10
2023-05-22T05:11:47.104Z,8.30
2023-05-22T05:12:47.092Z,9.40
2023-05-22T05:13:47.062Z,8.40
2023-05-22T05:14:47.049Z,9.80
2023-05-22T05:15:47.032Z,7.60
2023-05-22T05:16:47.086Z,8.20
2023-05-22T05:17:47.074Z,9.60
2023-05-22T05:18:47.051Z,10.50
2023-05-22T05:19:46.995Z,9.90
2023-05-22T05:20:46.986Z,8.50
2023-05-22T05:21:46.967Z,10.40
2023-05-22T05:22:46.996Z,12.00
2023-05-22T05:23:46.971Z,10.50
2023-05-22T05:24:46.941Z,12.10
2023-05-22T05:25:46.924Z,10.10
2023-05-22T05:26:46.918Z,10.20
2023-05-22T05:27:46.908Z,8.60
2023-05-22T05:28:46.918Z,9.80
2023-05-22T05:29:46.879Z,9.60
2023-05-22T05:30:46.869Z,8.30
2023-05-22T05:31:46.904Z,8.70
2023-05-22T05:32:46.876Z,13.10
2023-05-22T05:33:46.844Z,12.30
2023-05-22T05:34:46.855Z,9.90
2023-05-22T05:35:46.811Z,8.40
2023-05-22T05:36:46.810Z,9.20
2023-05-22T05:37:46.791Z,10.30
2023-05-22T05:38:46.787Z,9.20
2023-05-22T05:39:46.801Z,12.20
2023-05-22T05:40:46.775Z,11.00
2023-05-22T05:41:46.751Z,11.60
2023-05-22T05:42:46.737Z,11.00
2023-05-22T05:43:46.730Z,10.50
2023-05-22T05:44:46.745Z,14.40
2023-05-22T05:45:46.734Z,9.30
2023-05-22T05:46:46.694Z,10.70
2023-05-22T05:47:46.736Z,10.30
2023-05-22T05:48:46.669Z,10.60
2023-05-22T05:49:46.659Z,11.90
2023-05-22T05:50:46.674Z,11.20
2023-05-22T05:51:46.653Z,13.30
2023-05-22T05:52:46.623Z,12.20
2023-05-22T05:53:46.611Z,15.00
2023-05-22T05:54:46.629Z,11.80
2023-05-22T05:55:46.598Z,10.70
2023-05-22T05:56:46.609Z,12.10
2023-05-22T05:57:46.580Z,8.90
2023-05-22T05:58:46.560Z,11.80
2023-05-22T05:59:46.561Z,11.20
2023-05-22T06:00:46.538Z,12.60
2023-05-22T06:01:46.554Z,9.60
2023-05-22T06:02:48.881Z,15.60
2023-05-22T06:03:46.600Z,11.00
2023-05-22T06:04:46.504Z,11.70
2023-05-22T06:05:46.538Z,13.10
2023-05-22T06:06:46.506Z,12.60
2023-05-22T06:07:46.460Z,12.70
2023-05-22T06:08:46.456Z,14.50
2023-05-22T06:09:46.443Z,9.60
2023-05-22T06:10:46.429Z,15.50
2023-05-22T06:11:46.449Z,13.50
2023-05-22T06:12:46.431Z,11.40
2023-05-22T06:13:46.391Z,11.20
2023-05-22T06:14:46.407Z,13.60
2023-05-22T06:15:46.406Z,12.10
2023-05-22T06:16:46.470Z,11.40
2023-05-22T06:17:46.405Z,13.00
2023-05-22T06:18:46.396Z,12.40
2023-05-22T06:19:46.323Z,12.60
2023-05-22T06:20:46.328Z,15.60
2023-05-22T06:21:46.319Z,12.80
2023-05-22T06:22:46.325Z,13.10
2023-05-22T06:23:46.278Z,11.80
2023-05-22T06:24:46.281Z,13.80
2023-05-22T06:25:46.260Z,11.20
2023-05-22T06:26:46.252Z,9.30
2023-05-22T06:27:46.275Z,12.00
2023-05-22T06:28:46.236Z,14.50
2023-05-22T06:29:46.218Z,12.30
2023-05-22T06:30:46.396Z,13.30
2023-05-22T06:31:46.235Z,11.20
2023-05-22T06:32:46.353Z,12.30
2023-05-22T06:33:46.268Z,13.20
2023-05-22T06:34:46.157Z,10.50
2023-05-22T06:35:46.153Z,13.30
2023-05-22T06:36:46.154Z,11.60
2023-05-22T06:37:46.126Z,15.20
2023-05-22T06:38:46.161Z,13.00
2023-05-22T06:39:46.109Z,12.30
2023-05-22T06:40:46.107Z,14.40
2023-05-22T06:41:46.083Z,10.90
2023-05-22T06:42:46.098Z,17.40
2023-05-22T06:43:46.087Z,11.40
2023-05-22T06:44:46.054Z,13.80
2023-05-22T06:45:46.050Z,13.20
2023-05-22T06:46:46.034Z,14.10
2023-05-22T06:47:46.101Z,12.90
2023-05-22T06:48:46.019Z,12.40
2023-05-22T06:49:46.020Z,16.20
2023-05-22T06:50:46.000Z,11.70
2023-05-22T06:51:45.969Z,12.80
2023-05-22T06:52:45.963Z,14.90
2023-05-22T06:53:45.957Z,12.60
2023-05-22T06:54:45.958Z,13.40
2023-05-22T06:55:45.928Z,13.80
2023-05-22T06:56:45.917Z,12.30
2023-05-22T06:57:45.915Z,15.00
2023-05-22T06:58:45.895Z,15.50
2023-05-22T06:59:45.917Z,14.10
2023-05-22T07:00:45.886Z,12.70
2023-05-22T07:01:45.978Z,15.30
2023-05-22T07:02:45.892Z,14.10
2023-05-22T07:03:45.848Z,13.70
2023-05-22T07:04:45.845Z,11.20
2023-05-22T07:05:45.855Z,12.60
2023-05-22T07:06:45.830Z,12.10
2023-05-22T07:07:45.798Z,16.70
2023-05-22T07:08:45.797Z,15.10
2023-05-22T07:09:45.779Z,14.00
2023-05-22T07:10:45.792Z,13.20
2023-05-22T07:11:45.773Z,12.40
2023-05-22T07:12:45.737Z,13.00
2023-05-22T07:13:45.737Z,12.60
2023-05-22T07:14:45.712Z,12.50
2023-05-22T07:15:46.569Z,13.10
2023-05-22T07:16:45.746Z,16.00
2023-05-22T07:17:45.766Z,14.20
2023-05-22T07:18:45.682Z,13.00
2023-05-22T07:19:45.666Z,14.20
2023-05-22T07:20:45.678Z,12.90
2023-05-22T07:21:45.646Z,18.40
2023-05-22T07:22:45.635Z,15.80
2023-05-22T07:23:45.623Z,17.90
2023-05-22T07:24:45.615Z,15.80
2023-05-22T07:25:45.649Z,11.70
2023-05-22T07:26:45.591Z,20.40
2023-05-22T07:27:45.570Z,13.20
2023-05-22T07:28:45.561Z,15.90
2023-05-22T07:29:45.557Z,11.90
2023-05-22T07:30:45.545Z,15.70
2023-05-22T07:31:45.617Z,19.90
2023-05-22T07:32:45.561Z,16.30
2023-05-22T07:33:45.511Z,16.10
2023-05-22T07:34:45.503Z,14.90
2023-05-22T07:35:45.506Z,13.60
2023-05-22T07:36:45.474Z,12.70
2023-05-22T07:37:45.470Z,13.90
2023-05-22T07:38:45.445Z,16.60
2023-05-22T07:39:45.452Z,17.60
2023-05-22T07:40:45.424Z,15.00
2023-05-22T07:41:45.449Z,14.90
2023-05-22T07:42:45.405Z,16.90
2023-05-22T07:43:45.402Z,15.50
2023-05-22T07:44:45.396Z,12.80
2023-05-22T07:45:45.433Z,15.50
2023-05-22T07:46:45.407Z,16.90
2023-05-22T07:47:45.395Z,11.70
2023-05-22T07:48:45.346Z,12.10
2023-05-22T07:49:45.354Z,16.10
2023-05-22T07:50:45.356Z,13.60
2023-05-22T07:51:45.332Z,13.90
2023-05-22T07:52:45.302Z,12.20
2023-05-22T07:53:45.286Z,13.60
2023-05-22T07:54:45.711Z,13.40
2023-05-22T07:55:45.264Z,14.70
2023-05-22T07:56:45.274Z,11.70
2023-05-22T07:57:45.234Z,13.50
2023-05-22T07:58:45.222Z,15.10
2023-05-22T07:59:45.238Z,15.00
2023-05-22T08:00:45.203Z,14.80
2023-05-22T08:01:45.216Z,13.10
2023-05-22T08:02:45.262Z,14.10
2023-05-22T08:03:45.295Z,11.50
2023-05-22T08:04:45.238Z,15.70
2023-05-22T08:05:45.182Z,12.90
2023-05-22T08:06:45.139Z,13.80
2023-05-22T08:07:45.175Z,13.70
2023-05-22T08:08:45.113Z,14.90
2023-05-22T08:09:45.100Z,14.70
2023-05-22T08:10:58.144Z,13.90
2023-05-22T08:11:45.085Z,15.30
2023-05-22T08:12:45.077Z,17.00
2023-05-22T08:13:45.082Z,13.40
2023-05-22T08:14:45.047Z,15.10
2023-05-22T08:15:45.038Z,15.60
2023-05-22T08:16:45.044Z,15.70
2023-05-22T08:17:45.025Z,12.20
2023-05-22T08:18:45.081Z,16.20
2023-05-22T08:19:45.110Z,13.80
2023-05-22T08:20:44.975Z,20.70
2023-05-22T08:21:44.979Z,13.80
2023-05-22T08:22:44.964Z,15.10
2023-05-22T08:23:44.974Z,15.40
2023-05-22T08:24:44.927Z,13.30
2023-05-22T08:25:44.948Z,12.90
2023-05-22T08:26:44.915Z,17.70
2023-05-22T08:27:44.898Z,17.60
2023-05-22T08:28:44.912Z,15.00
2023-05-22T08:29:44.880Z,12.40
2023-05-22T08:30:44.929Z,19.50
2023-05-22T08:31:44.932Z,16.20
2023-05-22T08:32:44.861Z,14.80
2023-05-22T08:33:44.880Z,14.40
2023-05-22T08:34:44.822Z,13.70
2023-05-22T08:35:44.825Z,14.60
2023-05-22T08:36:44.804Z,14.90
2023-05-22T08:37:44.799Z,14.50
2023-05-22T08:38:44.807Z,15.80
2023-05-22T08:39:44.766Z,12.30
2023-05-22T08:40:46.346Z,16.10
2023-05-22T08:41:44.738Z,11.70
2023-05-22T08:42:44.764Z,15.60
2023-05-22T08:43:44.725Z,12.60
2023-05-22T08:44:44.749Z,15.70
2023-05-22T08:45:44.714Z,14.30
2023-05-22T08:46:44.705Z,18.30
2023-05-22T08:47:44.885Z,13.20
2023-05-22T08:48:44.671Z,15.10
2023-05-22T08:49:44.686Z,13.80
2023-05-22T08:50:44.661Z,16.40
2023-05-22T08:51:44.647Z,11.30
2023-05-22T08:52:44.622Z,14.10
2023-05-22T08:53:44.617Z,13.90
2023-05-22T08:54:44.613Z,13.80
2023-05-22T08:55:44.588Z,15.50
2023-05-22T08:56:55.718Z,12.40
2023-05-22T08:57:44.582Z,15.30
2023-05-22T08:58:44.557Z,14.30
2023-05-22T08:59:44.577Z,13.10
2023-05-22T09:00:44.612Z,17.60
2023-05-22T09:01:44.590Z,12.80
2023-05-22T09:02:44.543Z,13.30
2023-05-22T09:03:44.515Z,12.20
2023-05-22T09:04:44.492Z,14.60
2023-05-22T09:05:44.503Z,16.60
2023-05-22T09:06:44.490Z,14.00
2023-05-22T09:07:44.461Z,13.50
2023-05-22T09:08:44.445Z,14.60
2023-05-22T09:09:44.438Z,12.20
2023-05-22T09:10:44.448Z,13.10
2023-05-22T09:11:44.421Z,13.70
2023-05-22T09:12:44.425Z,11.70
2023-05-22T09:13:44.393Z,13.90
2023-05-22T09:14:44.381Z,13.60
2023-05-22T09:15:44.379Z,14.10
2023-05-22T09:16:44.380Z,14.90
2023-05-22T09:17:44.398Z,16.40
2023-05-22T09:18:44.416Z,15.90
2023-05-22T09:19:44.329Z,18.20
2023-05-22T09:20:44.326Z,16.40
2023-05-22T09:21:44.495Z,15.00
2023-05-22T09:22:44.315Z,14.50
2023-05-22T09:23:44.289Z,13.80
2023-05-22T09:24:44.269Z,14.80
2023-05-22T09:25:44.266Z,13.00
2023-05-22T09:26:44.261Z,13.30
2023-05-22T09:27:44.268Z,14.00
2023-05-22T09:28:44.228Z,13.80
2023-05-22T09:29:44.222Z,13.60
2023-05-22T09:30:44.347Z,20.80
2023-05-22T09:31:44.636Z,15.40
2023-05-22T09:32:44.223Z,14.20
2023-05-22T09:33:44.216Z,12.30
2023-05-22T09:34:44.161Z,14.40
2023-05-22T09:35:44.166Z,13.10
2023-05-22T09:36:44.175Z,16.60
2023-05-22T09:37:44.156Z,14.80
2023-05-22T09:38:44.118Z,15.50
2023-05-22T09:39:44.129Z,16.80
2023-05-22T09:40:44.107Z,15.00
2023-05-22T09:41:44.083Z,13.10
2023-05-22T09:42:44.092Z,15.10
2023-05-22T09:43:44.080Z,13.80
2023-05-22T09:44:44.049Z,12.90
2023-05-22T09:45:44.045Z,14.90
2023-05-22T09:46:44.132Z,17.50
2023-05-22T09:47:44.038Z,13.30
2023-05-22T09:48:44.037Z,13.00
2023-05-22T09:49:43.988Z,14.60
2023-05-22T09:50:43.989Z,15.80
2023-05-22T09:51:43.976Z,15.20
2023-05-22T09:52:43.964Z,14.30
2023-05-22T09:53:43.977Z,14.70
2023-05-22T09:54:43.941Z,15.00
2023-05-22T09:55:43.937Z,17.00
2023-05-22T09:56:43.916Z,14.50
2023-05-22T09:57:43.924Z,18.30
2023-05-22T09:58:43.906Z,15.10
2023-05-22T09:59:43.907Z,14.60
2023-05-22T10:00:43.870Z,14.70
2023-05-22T10:01:43.897Z,15.50
2023-05-22T10:02:43.927Z,13.90
2023-05-22T10:03:43.890Z,16.10
2023-05-22T10:04:43.932Z,12.80
2023-05-22T10:05:43.821Z,16.00
2023-05-22T10:06:43.805Z,12.90
2023-05-22T10:07:43.801Z,12.90
2023-05-22T10:08:43.787Z,15.70
2023-05-22T10:09:43.776Z,13.10
2023-05-22T10:10:43.797Z,12.60
2023-05-22T10:11:43.753Z,13.00
2023-05-22T10:12:43.749Z,15.60
2023-05-22T10:13:43.728Z,13.80
2023-05-22T10:14:43.723Z,12.50
2023-05-22T10:15:43.752Z,12.60
2023-05-22T10:16:43.764Z,15.70
2023-05-22T10:17:43.707Z,15.10
2023-05-22T10:18:43.689Z,14.10
2023-05-22T10:19:45.320Z,12.50
2023-05-22T10:20:43.677Z,12.10
2023-05-22T10:21:43.651Z,11.60
2023-05-22T10:22:43.641Z,12.50
2023-05-22T10:23:43.620Z,11.30
2023-05-22T10:24:43.610Z,11.60
2023-05-22T10:25:43.616Z,13.80
2023-05-22T10:26:43.621Z,10.60
2023-05-22T10:27:43.582Z,11.50
2023-05-22T10:28:43.570Z,14.10
2023-05-22T10:29:43.561Z,11.40
2023-05-22T10:30:43.630Z,11.00
2023-05-22T10:31:43.534Z,12.60
2023-05-22T10:32:43.575Z,12.40
2023-05-22T10:33:43.562Z,13.00
2023-05-22T10:34:43.501Z,13.10
2023-05-22T10:35:43.517Z,12.80
2023-05-22T10:36:43.743Z,12.00
2023-05-22T10:37:43.487Z,13.10
2023-05-22T10:38:43.496Z,11.40
2023-05-22T10:39:43.450Z,13.10
2023-05-22T10:40:43.498Z,12.90
2023-05-22T10:41:43.435Z,13.70
2023-05-22T10:42:43.428Z,12.90
2023-05-22T10:43:43.410Z,15.60
2023-05-22T10:44:43.424Z,13.50
2023-05-22T10:45:45.285Z,9.70
2023-05-22T10:46:43.375Z,10.40
2023-05-22T10:47:43.391Z,13.60
2023-05-22T10:48:43.349Z,9.20
2023-05-22T10:49:43.373Z,11.40
2023-05-22T10:50:43.325Z,12.30
2023-05-22T10:51:43.321Z,11.40
2023-05-22T10:52:50.352Z,9.80
2023-05-22T10:53:43.304Z,9.60
2023-05-22T10:54:43.288Z,10.30
2023-05-22T10:55:43.328Z,13.20
2023-05-22T10:56:43.275Z,15.50
2023-05-22T10:57:43.271Z,11.20
2023-05-22T10:58:43.260Z,15.90
2023-05-22T10:59:43.248Z,14.40
2023-05-22T11:00:43.230Z,10.60
2023-05-22T11:01:43.280Z,14.70
2023-05-22T11:02:43.280Z,16.30
2023-05-22T11:03:43.216Z,12.80
2023-05-22T11:04:43.216Z,11.80
2023-05-22T11:05:43.212Z,18.30
2023-05-22T11:06:43.173Z,12.20
2023-05-22T11:07:43.312Z,13.00
2023-05-22T11:08:43.168Z,10.70
2023-05-22T11:09:43.150Z,10.70
2023-05-22T11:10:43.133Z,13.20
2023-05-22T11:11:43.138Z,13.70
2023-05-22T11:12:43.108Z,13.70
2023-05-22T11:13:43.120Z,11.20
2023-05-22T11:14:43.089Z,12.70
2023-05-22T11:15:43.085Z,12.60
2023-05-22T11:16:43.106Z,13.00
2023-05-22T11:17:43.101Z,11.70
2023-05-22T11:18:45.110Z,13.60
2023-05-22T11:19:43.081Z,12.60
2023-05-22T11:20:43.113Z,11.70
2023-05-22T11:21:43.010Z,15.20
2023-05-22T11:22:43.009Z,13.80
2023-05-22T11:23:42.999Z,12.00
2023-05-22T11:24:42.982Z,17.60
2023-05-22T11:25:43.009Z,18.10
2023-05-22T11:26:42.971Z,17.60
2023-05-22T11:27:42.984Z,14.00
2023-05-22T11:28:42.988Z,14.90
2023-05-22T11:29:42.953Z,14.70
2023-05-22T11:30:42.967Z,15.20
2023-05-22T11:31:43.015Z,13.20
2023-05-22T11:32:42.915Z,12.90
2023-05-22T11:33:42.894Z,15.50
2023-05-22T11:34:43.417Z,12.50
2023-05-22T11:35:42.906Z,12.40
2023-05-22T11:36:42.869Z,17.80
2023-05-22T11:37:42.858Z,12.70
2023-05-22T11:38:42.850Z,13.50
2023-05-22T11:39:42.839Z,12.90
2023-05-22T11:40:42.905Z,17.60
2023-05-22T11:41:42.837Z,14.50
2023-05-22T11:42:42.808Z,23.80
2023-05-22T11:43:42.791Z,15.10
2023-05-22T11:44:42.784Z,12.90
2023-05-22T11:45:42.790Z,13.10
2023-05-22T11:46:42.781Z,13.10
2023-05-22T11:47:42.783Z,14.60
2023-05-22T11:48:42.744Z,13.10
2023-05-22T11:49:42.733Z,12.80
2023-05-22T11:50:42.946Z,15.00
2023-05-22T11:51:42.732Z,14.10
2023-05-22T11:52:42.706Z,11.50
2023-05-22T11:53:42.695Z,13.90
2023-05-22T11:54:42.701Z,13.40
2023-05-22T11:55:42.696Z,14.00
2023-05-22T11:56:42.691Z,14.70
2023-05-22T11:57:42.740Z,13.30
2023-05-22T11:58:42.631Z,13.60
2023-05-22T11:59:42.656Z,14.20
2023-05-22T12:00:42.772Z,15.90
2023-05-22T12:01:42.598Z,9.70
2023-05-22T12:02:42.669Z,11.40
2023-05-22T12:03:42.706Z,10.80
2023-05-22T12:04:42.573Z,12.10
2023-05-22T12:05:42.563Z,12.90
2023-05-22T12:06:42.588Z,12.90
2023-05-22T12:07:42.561Z,10.20
2023-05-22T12:08:42.527Z,11.90
2023-05-22T12:09:42.549Z,12.60
2023-05-22T12:10:42.506Z,12.20
2023-05-22T12:11:42.490Z,12.70
2023-05-22T12:12:42.505Z,13.70
2023-05-22T12:13:42.477Z,14.30
2023-05-22T12:14:42.465Z,13.30
2023-05-22T12:15:42.452Z,12.80
2023-05-22T12:16:42.506Z,12.50
2023-05-22T12:17:42.491Z,10.20
2023-05-22T12:18:42.419Z,13.00
2023-05-22T12:19:42.418Z,13.70
2023-05-22T12:20:42.398Z,12.50
2023-05-22T12:21:42.420Z,11.10
2023-05-22T12:22:42.381Z,13.60
2023-05-22T12:23:42.403Z,10.40
2023-05-22T12:24:42.366Z,14.80
2023-05-22T12:25:42.359Z,12.30
2023-05-22T12:26:42.342Z,13.60
2023-05-22T12:27:42.376Z,15.10
2023-05-22T12:28:42.340Z,11.80
2023-05-22T12:29:42.309Z,13.80
2023-05-22T12:30:42.340Z,12.30
2023-05-22T12:31:42.327Z,12.80
2023-05-22T12:32:42.307Z,13.20
2023-05-22T12:33:42.266Z,14.20
2023-05-22T12:34:42.256Z,14.70
2023-05-22T12:35:42.236Z,13.70
2023-05-22T12:36:42.241Z,11.30
2023-05-22T12:37:42.235Z,13.50
2023-05-22T12:38:42.241Z,12.40
2023-05-22T12:39:42.232Z,12.60
2023-05-22T12:40:42.205Z,14.00
2023-05-22T12:41:42.179Z,15.70
2023-05-22T12:42:42.193Z,13.00
2023-05-22T12:43:42.201Z,10.70
2023-05-22T12:44:42.174Z,11.50
2023-05-22T12:45:42.143Z,15.00
2023-05-22T12:46:42.167Z,11.00
2023-05-22T12:47:42.198Z,12.90
2023-05-22T12:48:42.140Z,10.90
2023-05-22T12:49:42.100Z,12.60
2023-05-22T12:50:42.378Z,10.30
2023-05-22T12:51:42.078Z,13.20
2023-05-22T12:52:42.066Z,11.60
2023-05-22T12:53:42.065Z,10.00
2023-05-22T12:54:42.081Z,10.90
2023-05-22T12:55:42.040Z,14.10
2023-05-22T12:56:42.053Z,14.30
2023-05-22T12:57:42.024Z,9.20
2023-05-22T12:58:42.013Z,16.30
2023-05-22T12:59:42.031Z,11.90
2023-05-22T13:00:42.198Z,10.50